createdAt,value
2018-10-15T00:02:11.370Z,12.60
2018-10-15T00:04:39.928Z,12.60
2018-10-15T00:07:12.652Z,12.60
2018-10-15T00:09:41.192Z,12.50
2018-10-15T00:12:09.724Z,12.50
2018-10-15T00:14:38.280Z,12.50
2018-10-15T00:17:06.815Z,12.50
2018-10-15T00:19:35.374Z,12.40
2018-10-15T00:22:03.908Z,12.40
2018-10-15T00:24:32.471Z,12.40
2018-10-15T00:27:01.170Z,12.30
2018-10-15T00:29:30.049Z,12.30
2018-10-15T00:31:58.574Z,12.30
2018-10-15T00:34:27.161Z,12.20
2018-10-15T00:36:55.738Z,12.20
2018-10-15T00:39:24.293Z,12.20
2018-10-15T00:41:52.791Z,12.20
2018-10-15T00:44:21.362Z,12.10
2018-10-15T00:46:49.946Z,12.10
2018-10-15T00:49:18.520Z,12.00
2018-10-15T00:51:47.056Z,12.00
2018-10-15T00:54:15.628Z,11.90
2018-10-15T00:56:44.131Z,11.90
2018-10-15T00:59:12.630Z,11.90
2018-10-15T01:01:41.200Z,11.80
2018-10-15T01:04:09.716Z,11.80
2018-10-15T01:06:38.286Z,11.80
2018-10-15T01:09:07.656Z,11.80
2018-10-15T01:11:36.206Z,11.80
2018-10-15T01:14:05.502Z,11.80
2018-10-15T01:16:34.048Z,11.80
2018-10-15T01:19:02.596Z,11.80
2018-10-15T01:21:31.126Z,11.80
2018-10-15T01:23:59.653Z,11.80
2018-10-15T01:26:33.491Z,11.80
2018-10-15T01:29:02.022Z,11.70
2018-10-15T01:31:30.607Z,11.70
2018-10-15T01:33:59.110Z,11.80
2018-10-15T01:36:27.691Z,11.70
2018-10-15T01:38:56.182Z,11.70
2018-10-15T01:41:25.091Z,11.70
2018-10-15T01:43:53.623Z,11.70
2018-10-15T01:46:22.752Z,11.70
2018-10-15T01:48:51.307Z,11.70
2018-10-15T01:51:20.192Z,11.70
2018-10-15T01:53:48.764Z,11.70
2018-10-15T01:56:17.324Z,11.70
2018-10-15T01:58:45.877Z,11.70
2018-10-15T02:01:14.376Z,11.70
2018-10-15T02:03:42.935Z,11.70
2018-10-15T02:06:11.687Z,11.70
2018-10-15T02:08:40.257Z,11.70
2018-10-15T02:11:08.813Z,11.70
2018-10-15T02:13:37.378Z,11.70
2018-10-15T02:16:06.184Z,11.70
2018-10-15T02:18:34.859Z,11.70
2018-10-15T02:21:03.383Z,11.70
2018-10-15T02:23:31.924Z,11.60
2018-10-15T02:26:00.423Z,11.60
2018-10-15T02:28:28.961Z,11.60
2018-10-15T02:30:57.461Z,11.60
2018-10-15T02:33:25.971Z,11.60
2018-10-15T02:35:54.505Z,11.60
2018-10-15T02:38:23.034Z,11.60
2018-10-15T02:40:51.556Z,11.60
2018-10-15T02:43:20.150Z,11.60
2018-10-15T02:45:48.650Z,11.60
2018-10-15T02:48:17.161Z,11.60
2018-10-15T02:50:45.707Z,11.60
2018-10-15T02:53:14.225Z,11.50
2018-10-15T02:55:42.756Z,11.50
2018-10-15T02:58:11.275Z,11.40
2018-10-15T03:00:39.835Z,11.40
2018-10-15T03:03:08.336Z,11.40
2018-10-15T03:05:36.934Z,11.40
2018-10-15T03:08:05.446Z,11.30
2018-10-15T03:10:34.008Z,11.30
2018-10-15T03:13:02.634Z,11.30
2018-10-15T03:15:31.194Z,11.30
2018-10-15T03:17:59.709Z,11.30
2018-10-15T03:20:28.274Z,11.20
2018-10-15T03:22:56.804Z,11.20
2018-10-15T03:25:25.360Z,11.10
2018-10-15T03:27:53.898Z,11.10
2018-10-15T03:30:22.476Z,11.10
2018-10-15T03:32:51.008Z,11.10
2018-10-15T03:35:19.598Z,11.10
2018-10-15T03:37:48.117Z,11.10
2018-10-15T03:40:16.851Z,11.10
2018-10-15T03:42:45.378Z,11.10
2018-10-15T03:45:13.930Z,11.00
2018-10-15T03:47:42.497Z,11.00
2018-10-15T03:50:11.047Z,11.00
2018-10-15T03:52:39.620Z,11.00
2018-10-15T03:55:08.189Z,10.90
2018-10-15T03:57:36.734Z,10.90
2018-10-15T04:00:05.913Z,10.90
2018-10-15T04:02:34.533Z,10.80
2018-10-15T04:05:02.968Z,10.80
2018-10-15T04:07:31.522Z,10.70
2018-10-15T04:10:00.015Z,10.70
2018-10-15T04:12:29.662Z,10.70
2018-10-15T04:14:58.160Z,10.60
2018-10-15T04:17:26.720Z,10.60
2018-10-15T04:19:55.285Z,10.60
2018-10-15T04:22:23.859Z,10.50
2018-10-15T04:24:52.372Z,10.40
2018-10-15T04:27:20.935Z,10.40
2018-10-15T04:29:49.773Z,10.30
2018-10-15T04:32:18.336Z,10.20
2018-10-15T04:34:46.888Z,10.10
2018-10-15T04:37:15.418Z,10.00
2018-10-15T04:39:43.980Z,10.00
2018-10-15T04:42:12.500Z,10.00
2018-10-15T04:44:41.093Z,9.80
2018-10-15T04:47:09.622Z,9.80
2018-10-15T04:49:38.440Z,9.80
2018-10-15T04:52:06.744Z,9.70
2018-10-15T04:54:35.307Z,9.70
2018-10-15T04:57:03.828Z,9.60
2018-10-15T04:59:32.381Z,9.50
2018-10-15T05:02:00.878Z,9.50
2018-10-15T05:04:29.417Z,9.50
2018-10-15T05:06:57.942Z,9.40
2018-10-15T05:09:26.537Z,9.40
2018-10-15T05:11:55.063Z,9.30
2018-10-15T05:14:23.622Z,9.30
2018-10-15T05:16:52.136Z,9.30
2018-10-15T05:19:20.694Z,9.20
2018-10-15T05:21:49.236Z,9.20
2018-10-15T05:24:18.320Z,9.20
2018-10-15T05:26:46.858Z,9.20
2018-10-15T05:29:16.388Z,9.20
2018-10-15T05:31:44.978Z,9.20
2018-10-15T05:34:13.574Z,9.20
2018-10-15T05:36:42.141Z,9.20
2018-10-15T05:39:11.863Z,9.20
2018-10-15T05:41:40.468Z,9.30
2018-10-15T05:44:08.976Z,9.30
2018-10-15T05:46:37.977Z,9.30
2018-10-15T05:49:07.168Z,9.30
2018-10-15T05:51:35.747Z,9.40
2018-10-15T05:54:04.441Z,9.40
2018-10-15T05:56:32.962Z,9.40
2018-10-15T05:59:07.472Z,9.50
2018-10-15T06:01:36.059Z,9.50
2018-10-15T06:04:05.382Z,9.60
2018-10-15T06:06:33.959Z,9.60
2018-10-15T06:09:02.558Z,9.70
2018-10-15T06:11:31.122Z,9.80
2018-10-15T06:13:59.647Z,9.80
2018-10-15T06:16:28.228Z,9.80
2018-10-15T06:18:56.720Z,9.90
2018-10-15T06:21:25.332Z,10.00
2018-10-15T06:23:53.856Z,10.10
2018-10-15T06:26:22.472Z,10.20
2018-10-15T06:28:51.042Z,10.20
2018-10-15T06:31:19.690Z,10.30
2018-10-15T06:33:48.315Z,10.30
2018-10-15T06:36:16.920Z,10.40
2018-10-15T06:38:45.427Z,10.40
2018-10-15T06:41:13.968Z,10.50
2018-10-15T06:43:42.579Z,10.60
2018-10-15T06:46:11.234Z,10.60
2018-10-15T06:48:39.752Z,10.70
2018-10-15T06:51:08.322Z,10.80
2018-10-15T06:53:36.894Z,10.80
2018-10-15T06:56:05.770Z,10.90
2018-10-15T06:58:34.316Z,10.90
2018-10-15T07:01:02.974Z,11.00
2018-10-15T07:03:31.534Z,11.10
2018-10-15T07:06:00.139Z,11.20
2018-10-15T07:08:28.720Z,11.30
2018-10-15T07:10:57.268Z,11.50
2018-10-15T07:13:25.843Z,11.60
2018-10-15T07:15:54.349Z,11.70
2018-10-15T07:18:22.962Z,11.90
2018-10-15T07:20:51.543Z,12.10
2018-10-15T07:23:19.950Z,12.20
2018-10-15T07:25:48.492Z,12.30
2018-10-15T07:28:17.018Z,12.50
2018-10-15T07:30:45.555Z,12.60
2018-10-15T07:33:14.073Z,12.80
2018-10-15T07:35:42.678Z,13.00
2018-10-15T07:38:11.248Z,13.10
2018-10-15T07:40:39.797Z,13.20
2018-10-15T07:43:08.320Z,13.40
2018-10-15T07:45:36.895Z,13.50
2018-10-15T07:48:05.636Z,13.60
2018-10-15T07:50:34.165Z,13.80
2018-10-15T07:53:02.768Z,13.90
2018-10-15T07:55:31.294Z,14.00
2018-10-15T07:57:59.845Z,14.10
2018-10-15T08:00:28.476Z,14.20
2018-10-15T08:02:56.938Z,14.30
2018-10-15T08:05:26.085Z,14.40
2018-10-15T08:07:54.695Z,14.50
2018-10-15T08:10:23.366Z,14.60
2018-10-15T08:12:51.786Z,14.70
2018-10-15T08:15:21.215Z,14.80
2018-10-15T08:17:49.628Z,14.90
2018-10-15T08:20:19.261Z,15.00
2018-10-15T08:22:48.576Z,15.10
2018-10-15T08:25:17.100Z,15.20
2018-10-15T08:27:45.681Z,15.30
2018-10-15T08:30:15.811Z,15.40
2018-10-15T08:32:44.563Z,15.50
2018-10-15T08:35:13.264Z,15.50
2018-10-15T08:37:41.835Z,15.70
2018-10-15T08:40:12.392Z,15.80
2018-10-15T08:42:42.943Z,15.90
2018-10-15T08:45:11.805Z,16.00
2018-10-15T08:47:40.458Z,16.10
2018-10-15T08:50:10.218Z,16.20
2018-10-15T08:52:39.144Z,16.30
2018-10-15T08:55:07.766Z,16.40
2018-10-15T08:57:37.579Z,16.50
2018-10-15T09:00:09.797Z,16.60
2018-10-15T09:02:38.419Z,16.70
2018-10-15T09:05:07.951Z,16.80
2018-10-15T09:07:36.690Z,16.90
2018-10-15T09:10:06.130Z,17.00
2018-10-15T09:12:34.750Z,17.20
2018-10-15T09:15:03.606Z,17.20
2018-10-15T09:17:32.187Z,17.30
2018-10-15T09:20:00.896Z,17.30
2018-10-15T09:22:29.399Z,17.40
2018-10-15T09:24:57.922Z,17.50
2018-10-15T09:27:26.550Z,17.60
2018-10-15T09:29:55.273Z,17.70
2018-10-15T09:32:23.875Z,17.90
2018-10-15T09:34:52.518Z,17.90
2018-10-15T09:37:20.988Z,18.00
2018-10-15T09:39:49.571Z,18.10
2018-10-15T09:42:18.111Z,18.10
2018-10-15T09:44:46.684Z,18.20
2018-10-15T09:47:15.251Z,18.10
2018-10-15T09:49:43.894Z,18.10
2018-10-15T09:52:12.390Z,18.10
2018-10-15T09:54:40.986Z,18.10
2018-10-15T09:57:09.507Z,18.20
2018-10-15T09:59:38.846Z,18.20
2018-10-15T10:02:07.596Z,18.30
2018-10-15T10:04:36.299Z,18.40
2018-10-15T10:07:05.395Z,18.50
2018-10-15T10:12:08.298Z,18.60
2018-10-15T10:14:36.949Z,18.70
2018-10-15T10:17:05.485Z,18.70
2018-10-15T10:19:34.026Z,18.80
2018-10-15T10:22:03.864Z,18.80
2018-10-15T10:24:32.324Z,18.80
2018-10-15T10:27:00.993Z,18.90
2018-10-15T10:29:29.478Z,18.90
2018-10-15T10:31:57.982Z,18.90
2018-10-15T10:34:58.243Z,19.00
2018-10-15T10:37:26.786Z,19.10
2018-10-15T10:39:55.524Z,19.30
2018-10-15T10:42:24.028Z,19.40
2018-10-15T10:44:52.607Z,19.40
2018-10-15T10:47:21.175Z,19.50
2018-10-15T10:49:49.679Z,19.40
2018-10-15T10:52:18.204Z,19.40
2018-10-15T10:54:46.781Z,19.30
2018-10-15T10:57:15.352Z,19.20
2018-10-15T10:59:43.990Z,19.30
2018-10-15T11:02:12.688Z,19.30
2018-10-15T11:04:41.196Z,19.40
2018-10-15T11:07:09.724Z,19.60
2018-10-15T11:09:38.251Z,19.60
2018-10-15T11:12:06.911Z,19.80
2018-10-15T11:14:35.459Z,19.90
2018-10-15T11:17:04.235Z,20.00
2018-10-15T11:19:32.763Z,20.10
2018-10-15T11:22:02.542Z,20.10
2018-10-15T11:24:31.079Z,20.20
2018-10-15T11:26:59.698Z,20.20
2018-10-15T11:29:28.737Z,20.10
2018-10-15T11:31:57.249Z,20.00
2018-10-15T11:34:25.856Z,19.90
2018-10-15T11:36:54.356Z,19.70
2018-10-15T11:39:22.892Z,19.50
2018-10-15T11:41:51.487Z,19.40
2018-10-15T11:44:20.139Z,19.30
2018-10-15T11:46:48.681Z,19.30
2018-10-15T11:49:17.161Z,19.30
2018-10-15T11:51:45.731Z,19.30
2018-10-15T11:54:14.324Z,19.30
2018-10-15T11:56:42.809Z,19.40
2018-10-15T11:59:11.308Z,19.40
2018-10-15T12:01:39.871Z,19.40
2018-10-15T12:04:08.448Z,19.30
2018-10-15T12:06:36.975Z,19.30
2018-10-15T12:11:43.496Z,19.10
2018-10-15T12:14:12.105Z,19.10
2018-10-15T12:16:40.706Z,19.00
2018-10-15T12:19:09.242Z,18.90
2018-10-15T12:21:37.751Z,18.80
2018-10-15T12:24:06.357Z,18.80
2018-10-15T12:26:34.895Z,18.70
2018-10-15T12:29:03.526Z,18.70
2018-10-15T12:31:32.041Z,18.70
2018-10-15T12:34:00.687Z,18.70
2018-10-15T12:36:29.244Z,18.70
2018-10-15T12:38:57.838Z,18.70
2018-10-15T12:41:26.399Z,18.70
2018-10-15T12:43:55.011Z,18.70
2018-10-15T12:46:23.523Z,18.70
2018-10-15T12:48:52.115Z,18.60
2018-10-15T12:51:20.611Z,18.70
2018-10-15T12:53:49.297Z,18.60
2018-10-15T12:56:17.763Z,18.70
2018-10-15T12:58:46.360Z,18.70
2018-10-15T13:01:15.029Z,18.80
2018-10-15T13:03:43.535Z,18.90
2018-10-15T13:06:12.058Z,19.00
2018-10-15T13:08:40.619Z,19.20
2018-10-15T13:11:09.204Z,19.30
2018-10-15T13:13:37.763Z,19.40
2018-10-15T13:16:06.342Z,19.50
2018-10-15T13:18:34.859Z,19.60
2018-10-15T13:21:03.439Z,19.60
2018-10-15T13:23:31.943Z,19.60
2018-10-15T13:26:00.512Z,19.60
2018-10-15T13:28:29.097Z,19.50
2018-10-15T13:30:57.686Z,19.50
2018-10-15T13:33:26.240Z,19.50
2018-10-15T13:35:54.868Z,19.40
2018-10-15T13:38:23.434Z,19.30
2018-10-15T13:40:52.039Z,19.20
2018-10-15T13:43:20.598Z,19.10
2018-10-15T13:45:49.230Z,19.10
2018-10-15T13:48:17.804Z,19.00
2018-10-15T13:50:46.534Z,18.90
2018-10-15T13:53:15.069Z,18.90
2018-10-15T13:55:43.600Z,18.90
2018-10-15T13:58:12.178Z,18.90
2018-10-15T14:00:42.800Z,18.80
2018-10-15T14:03:13.152Z,18.80
2018-10-15T14:05:41.668Z,18.70
2018-10-15T14:08:10.232Z,18.70
2018-10-15T14:10:38.823Z,18.60
2018-10-15T14:13:07.442Z,18.70
2018-10-15T14:15:35.968Z,18.60
2018-10-15T14:18:05.357Z,18.60
2018-10-15T14:20:33.914Z,18.60
2018-10-15T14:23:02.566Z,18.60
2018-10-15T14:25:31.108Z,18.50
2018-10-15T14:27:59.706Z,18.50
2018-10-15T14:30:28.246Z,18.50
2018-10-15T14:32:56.851Z,18.50
2018-10-15T14:35:25.415Z,18.50
2018-10-15T14:37:53.975Z,18.50
2018-10-15T14:40:22.486Z,18.50
2018-10-15T14:42:51.057Z,18.50
2018-10-15T14:45:19.630Z,18.50
2018-10-15T14:47:48.203Z,18.50
2018-10-15T14:50:18.236Z,18.50
2018-10-15T14:52:47.979Z,18.50
2018-10-15T14:55:16.617Z,18.40
2018-10-15T14:57:45.236Z,18.40
2018-10-15T15:00:14.829Z,18.30
2018-10-15T15:02:43.380Z,18.30
2018-10-15T15:05:12.554Z,18.30
2018-10-15T15:07:41.171Z,18.20
2018-10-15T15:13:07.199Z,18.10
2018-10-15T15:15:35.769Z,18.00
2018-10-15T15:18:04.567Z,18.00
2018-10-15T15:20:33.116Z,18.00
2018-10-15T15:23:01.656Z,17.90
2018-10-15T15:25:30.247Z,17.80
2018-10-15T15:27:58.842Z,17.70
2018-10-15T15:30:27.435Z,17.60
2018-10-15T15:32:56.049Z,17.60
2018-10-15T15:35:24.599Z,17.50
2018-10-15T15:37:53.151Z,17.50
2018-10-15T15:40:21.762Z,17.40
2018-10-15T15:42:50.334Z,17.30
2018-10-15T15:45:19.006Z,17.30
2018-10-15T15:47:47.582Z,17.20
2018-10-15T15:50:16.151Z,17.20
2018-10-15T15:52:44.736Z,17.10
2018-10-15T15:55:13.300Z,17.10
2018-10-15T15:57:41.898Z,17.00
2018-10-15T16:00:12.280Z,16.90
2018-10-15T16:02:41.154Z,16.90
2018-10-15T16:05:10.262Z,16.80
2018-10-15T16:07:39.311Z,16.80
2018-10-15T16:10:09.054Z,16.80
2018-10-15T16:12:37.660Z,16.70
2018-10-15T16:15:07.779Z,16.60
2018-10-15T16:17:36.442Z,16.60
2018-10-15T16:20:06.082Z,16.60
2018-10-15T16:22:34.697Z,16.50
2018-10-15T16:25:03.238Z,16.50
2018-10-15T16:27:32.136Z,16.40
2018-10-15T16:30:00.653Z,16.30
2018-10-15T16:32:29.260Z,16.30
2018-10-15T16:34:57.811Z,16.30
2018-10-15T16:37:26.424Z,16.20
2018-10-15T16:39:54.960Z,16.20
2018-10-15T16:42:23.632Z,16.10
2018-10-15T16:44:52.189Z,16.00
2018-10-15T16:47:20.763Z,16.00
2018-10-15T16:49:49.320Z,16.00
2018-10-15T16:52:17.809Z,15.90
2018-10-15T16:54:46.375Z,15.90
2018-10-15T16:57:14.900Z,15.90
2018-10-15T16:59:43.439Z,15.80
2018-10-15T17:02:11.968Z,15.70
2018-10-15T17:04:40.553Z,15.70
2018-10-15T17:07:09.122Z,15.70
2018-10-15T17:09:37.724Z,15.70
2018-10-15T17:12:06.445Z,15.70
2018-10-15T17:14:34.976Z,15.60
2018-10-15T17:17:03.506Z,15.60
2018-10-15T17:19:32.091Z,15.50
2018-10-15T17:22:00.626Z,15.50
2018-10-15T17:24:29.208Z,15.40
2018-10-15T17:26:57.755Z,15.30
2018-10-15T17:29:26.332Z,15.30
2018-10-15T17:31:54.934Z,15.20
2018-10-15T17:34:23.496Z,15.20
2018-10-15T17:36:52.094Z,15.10
2018-10-15T17:39:20.645Z,15.10
2018-10-15T17:41:49.226Z,15.10
2018-10-15T17:44:17.759Z,15.00
2018-10-15T17:46:46.396Z,15.00
2018-10-15T17:49:14.944Z,15.00
2018-10-15T17:51:43.512Z,14.90
2018-10-15T17:54:12.070Z,14.90
2018-10-15T17:56:40.625Z,14.90
2018-10-15T17:59:09.146Z,14.80
2018-10-15T18:01:37.749Z,14.80
2018-10-15T18:04:06.423Z,14.70
2018-10-15T18:06:34.889Z,14.70
2018-10-15T18:09:04.901Z,14.60
2018-10-15T18:11:33.450Z,14.60
2018-10-15T18:14:01.998Z,14.50
2018-10-15T18:16:30.594Z,14.50
2018-10-15T18:18:59.121Z,14.50
2018-10-15T18:21:27.690Z,14.40
2018-10-15T18:23:56.216Z,14.40
2018-10-15T18:26:25.598Z,14.30
2018-10-15T18:28:54.174Z,14.30
2018-10-15T18:31:22.775Z,14.20
2018-10-15T18:33:51.246Z,14.10
2018-10-15T18:39:09.388Z,13.90
2018-10-15T18:41:37.993Z,13.80
2018-10-15T18:44:07.291Z,13.70
2018-10-15T18:46:35.839Z,13.60
2018-10-15T18:49:04.639Z,13.50
2018-10-15T18:51:33.178Z,13.40
2018-10-15T18:54:02.917Z,13.30
2018-10-15T18:56:31.475Z,13.20
2018-10-15T18:58:59.985Z,13.10
2018-10-15T19:01:29.294Z,13.10
2018-10-15T19:03:57.827Z,13.00
2018-10-15T19:06:26.826Z,13.00
2018-10-15T19:08:55.379Z,13.00
2018-10-15T19:11:24.022Z,12.90
2018-10-15T19:13:52.699Z,12.90
2018-10-15T19:16:21.285Z,12.80
2018-10-15T19:18:49.811Z,12.80
2018-10-15T19:21:18.447Z,12.70
2018-10-15T19:23:47.037Z,12.70
2018-10-15T19:26:15.632Z,12.60
2018-10-15T19:28:44.142Z,12.60
2018-10-15T19:31:12.705Z,12.60
2018-10-15T19:33:41.187Z,12.50
2018-10-15T19:36:10.109Z,12.50
2018-10-15T19:38:38.978Z,12.50
2018-10-15T19:41:07.655Z,12.40
2018-10-15T19:43:36.207Z,12.40
2018-10-15T19:46:04.743Z,12.40
2018-10-15T19:48:33.345Z,12.30
2018-10-15T19:51:01.867Z,12.30
2018-10-15T19:53:30.438Z,12.20
2018-10-15T19:55:58.979Z,12.20
2018-10-15T19:58:27.671Z,12.10
2018-10-15T20:00:56.151Z,12.00
2018-10-15T20:03:24.849Z,12.00
2018-10-15T20:05:53.302Z,11.90
2018-10-15T20:08:21.862Z,11.80
2018-10-15T20:10:50.408Z,11.80
2018-10-15T20:13:18.930Z,11.70
2018-10-15T20:15:47.452Z,11.60
2018-10-15T20:18:16.022Z,11.60
2018-10-15T20:20:44.513Z,11.60
2018-10-15T20:23:13.048Z,11.50
2018-10-15T20:25:41.594Z,11.50
2018-10-15T20:28:10.125Z,11.40
2018-10-15T20:30:38.614Z,11.40
2018-10-15T20:33:07.136Z,11.40
2018-10-15T20:35:36.567Z,11.40
2018-10-15T20:38:05.658Z,11.30
2018-10-15T20:40:34.206Z,11.30
2018-10-15T20:43:02.767Z,11.30
2018-10-15T20:45:31.338Z,11.30
2018-10-15T20:47:59.898Z,11.20
2018-10-15T20:50:28.446Z,11.20
2018-10-15T20:52:56.993Z,11.20
2018-10-15T20:55:25.578Z,11.20
2018-10-15T20:57:54.120Z,11.20
2018-10-15T21:00:22.754Z,11.20
2018-10-15T21:02:51.334Z,11.10
2018-10-15T21:05:19.879Z,11.10
2018-10-15T21:07:48.402Z,11.10
2018-10-15T21:10:17.702Z,11.10
2018-10-15T21:12:46.196Z,11.10
2018-10-15T21:15:14.755Z,11.10
2018-10-15T21:17:43.224Z,11.10
2018-10-15T21:20:12.053Z,11.10
2018-10-15T21:22:41.212Z,11.10
2018-10-15T21:25:10.971Z,11.10
2018-10-15T21:27:40.064Z,11.10
2018-10-15T21:30:09.657Z,11.10
2018-10-15T21:32:38.826Z,11.10
2018-10-15T21:35:08.301Z,11.10
2018-10-15T21:37:36.844Z,11.10
2018-10-15T21:40:06.936Z,11.10
2018-10-15T21:42:35.471Z,11.10
2018-10-15T21:45:04.079Z,11.10
2018-10-15T21:47:32.619Z,11.20
2018-10-15T21:50:01.161Z,11.20
2018-10-15T21:52:29.720Z,11.10
2018-10-15T21:54:58.209Z,11.20
2018-10-15T21:57:26.834Z,11.20
2018-10-15T21:59:55.288Z,11.10
2018-10-15T22:02:23.879Z,11.10
2018-10-15T22:04:52.400Z,11.10
2018-10-15T22:07:20.967Z,11.10
2018-10-15T22:09:49.544Z,11.10
2018-10-15T22:12:18.120Z,11.10
2018-10-15T22:14:46.667Z,11.10
2018-10-15T22:17:15.194Z,11.10
2018-10-15T22:19:43.684Z,11.10
2018-10-15T22:22:12.230Z,11.10
2018-10-15T22:24:40.762Z,11.20
2018-10-15T22:27:09.499Z,11.20
2018-10-15T22:29:38.043Z,11.20
2018-10-15T22:32:06.638Z,11.30
2018-10-15T22:34:35.235Z,11.40
2018-10-15T22:37:03.771Z,11.50
2018-10-15T22:39:32.367Z,11.60
2018-10-15T22:42:00.851Z,11.70
2018-10-15T22:44:29.411Z,11.80
2018-10-15T22:46:57.965Z,12.00
2018-10-15T22:49:26.551Z,12.00
2018-10-15T22:51:55.063Z,12.10
2018-10-15T22:54:23.603Z,12.20
2018-10-15T22:56:52.079Z,12.20
2018-10-15T22:59:20.621Z,12.30
2018-10-15T23:01:49.139Z,12.40
2018-10-15T23:04:17.721Z,12.40
2018-10-15T23:06:46.250Z,12.40
2018-10-15T23:09:14.842Z,12.50
2018-10-15T23:11:43.372Z,12.50
2018-10-15T23:14:11.951Z,12.50
2018-10-15T23:16:40.461Z,12.50
2018-10-15T23:19:09.020Z,12.40
2018-10-15T23:21:37.515Z,12.40
2018-10-15T23:24:06.069Z,12.30
2018-10-15T23:26:34.631Z,12.10
2018-10-15T23:29:03.146Z,11.90
2018-10-15T23:31:31.709Z,11.80
2018-10-15T23:34:00.199Z,11.70
2018-10-15T23:36:28.752Z,11.70
2018-10-15T23:38:57.365Z,11.60
2018-10-15T23:41:25.925Z,11.60
2018-10-15T23:43:54.450Z,11.50
2018-10-15T23:46:22.978Z,11.50
2018-10-15T23:48:51.514Z,11.40
2018-10-15T23:51:20.060Z,11.40
2018-10-15T23:53:48.605Z,11.40
2018-10-15T23:56:17.211Z,11.30
2018-10-15T23:58:45.718Z,11.20
